createdAt,value
2023-07-08T00:01:51.560Z,36.99
2023-07-08T00:06:53.375Z,38.07
2023-07-08T00:11:55.175Z,36.12
2023-07-08T00:16:56.909Z,38.09
2023-07-08T00:21:58.686Z,35.88
2023-07-08T00:27:00.386Z,37.35
2023-07-08T00:32:02.138Z,38.79
2023-07-08T00:37:06.204Z,41.21
2023-07-08T00:42:16.623Z,38.89
2023-07-08T00:47:19.000Z,41.66
2023-07-08T00:52:25.317Z,40.08
2023-07-08T00:57:32.994Z,40.21
2023-07-08T01:02:39.535Z,38.14
2023-07-08T01:07:45.276Z,38.62
2023-07-08T01:12:50.556Z,38.25
2023-07-08T01:17:54.646Z,38.83
2023-07-08T01:22:56.565Z,38.44
2023-07-08T01:27:58.990Z,38.61
2023-07-08T01:33:05.879Z,36.71
2023-07-08T01:38:11.666Z,38.89
2023-07-08T01:43:13.369Z,37.40
2023-07-08T01:48:19.638Z,38.36
2023-07-08T01:53:28.655Z,39.41
2023-07-08T01:58:30.452Z,37.33
2023-07-08T02:03:32.454Z,38.03
2023-07-08T02:08:34.340Z,39.06
2023-07-08T02:13:36.191Z,40.11
2023-07-08T02:18:37.939Z,41.58
2023-07-08T02:23:40.593Z,41.30
2023-07-08T02:28:42.434Z,43.18
2023-07-08T02:33:44.500Z,43.12
2023-07-08T02:38:46.273Z,43.38
2023-07-08T02:43:48.086Z,42.29
2023-07-08T02:48:49.870Z,42.42
2023-07-08T02:53:51.781Z,42.48
2023-07-08T02:58:54.564Z,41.15
2023-07-08T03:03:59.592Z,41.57
2023-07-08T03:09:01.372Z,41.04
2023-07-08T03:14:03.985Z,41.87
2023-07-08T03:19:06.863Z,41.23
2023-07-08T03:24:14.734Z,40.83
2023-07-08T03:29:19.499Z,41.85
2023-07-08T03:34:21.243Z,41.89
2023-07-08T03:39:25.242Z,41.38
2023-07-08T03:44:27.023Z,42.21
2023-07-08T03:49:28.790Z,42.57
2023-07-08T03:54:30.514Z,42.31
2023-07-08T03:59:32.236Z,42.63
2023-07-08T04:04:34.000Z,42.28
2023-07-08T04:09:35.730Z,41.74
2023-07-08T04:14:37.579Z,39.97
2023-07-08T04:19:40.583Z,38.03
2023-07-08T04:24:42.313Z,39.05
2023-07-08T04:29:45.248Z,40.82
2023-07-08T04:34:46.942Z,40.30
2023-07-08T04:39:48.764Z,39.50
2023-07-08T04:44:50.870Z,39.00
2023-07-08T04:49:52.656Z,39.52
2023-07-08T04:54:54.446Z,37.57
2023-07-08T04:59:56.183Z,40.32
2023-07-08T05:04:57.890Z,41.46
2023-07-08T05:09:59.764Z,41.69
2023-07-08T05:15:01.631Z,44.11
2023-07-08T05:20:04.624Z,46.09
2023-07-08T05:25:07.384Z,45.77
2023-07-08T05:30:12.179Z,48.53
2023-07-08T05:35:14.193Z,49.06
2023-07-08T05:40:16.561Z,46.27
2023-07-08T05:45:18.375Z,46.12
2023-07-08T05:50:20.281Z,46.05
2023-07-08T05:55:22.012Z,47.08
2023-07-08T06:00:33.986Z,46.68
2023-07-08T06:05:40.795Z,46.38
2023-07-08T06:10:45.461Z,46.81
2023-07-08T06:15:47.391Z,46.34
2023-07-08T06:20:57.728Z,46.58
2023-07-08T06:25:59.730Z,46.25
2023-07-08T06:31:01.814Z,47.00
2023-07-08T06:36:04.064Z,46.02
2023-07-08T06:41:05.794Z,47.53
2023-07-08T06:46:07.980Z,47.68
2023-07-08T06:51:09.815Z,47.01
2023-07-08T06:56:11.693Z,47.82
2023-07-08T07:01:14.372Z,45.83
2023-07-08T07:06:16.179Z,47.41
2023-07-08T07:11:20.333Z,47.38
2023-07-08T07:16:22.217Z,48.46
2023-07-08T07:21:24.023Z,47.06
2023-07-08T07:26:25.758Z,46.63
2023-07-08T07:31:27.609Z,46.02
2023-07-08T07:36:30.265Z,44.06
2023-07-08T07:41:32.009Z,45.45
2023-07-08T07:46:33.995Z,43.96
2023-07-08T07:51:35.761Z,44.33
2023-07-08T07:56:37.489Z,42.94
2023-07-08T08:01:39.370Z,44.21
2023-07-08T08:06:41.365Z,42.58
2023-07-08T08:11:43.100Z,42.87
2023-07-08T08:16:45.566Z,43.07
2023-07-08T08:21:47.419Z,41.83
2023-07-08T08:26:49.300Z,40.19
2023-07-08T08:31:51.937Z,39.64
2023-07-08T08:36:56.808Z,39.80
2023-07-08T08:41:59.005Z,39.74
2023-07-08T08:47:20.950Z,39.05
2023-07-08T08:52:22.797Z,39.01
2023-07-08T08:57:48.069Z,38.92
2023-07-08T09:02:49.735Z,39.16
2023-07-08T09:08:03.550Z,38.63
2023-07-08T09:13:07.776Z,38.59
2023-07-08T09:18:26.821Z,37.95
2023-07-08T09:23:33.618Z,37.80
2023-07-08T09:28:44.460Z,37.74
2023-07-08T09:33:46.208Z,37.14
2023-07-08T09:38:49.994Z,37.37
2023-07-08T09:43:51.869Z,37.59
2023-07-08T09:48:53.591Z,37.99
2023-07-08T09:53:55.648Z,37.91
2023-07-08T09:58:58.151Z,37.26
2023-07-08T10:04:01.942Z,36.42
2023-07-08T10:09:19.874Z,37.37
2023-07-08T10:14:26.638Z,37.57
2023-07-08T10:19:28.649Z,36.71
2023-07-08T10:24:55.293Z,36.57
2023-07-08T10:30:23.735Z,37.07
2023-07-08T10:35:38.594Z,36.61
2023-07-08T10:40:49.330Z,35.91
2023-07-08T10:45:57.207Z,35.75
2023-07-08T10:51:14.185Z,36.14
2023-07-08T10:56:25.134Z,34.82
2023-07-08T11:06:28.256Z,36.86
2023-07-08T11:11:52.340Z,36.30
2023-07-08T11:17:07.306Z,36.45
2023-07-08T11:22:12.755Z,36.12
2023-07-08T11:27:28.791Z,36.08
2023-07-08T11:32:34.098Z,35.17
2023-07-08T11:37:36.166Z,35.18
2023-07-08T11:42:58.328Z,35.79
2023-07-08T11:48:06.838Z,35.29
2023-07-08T11:53:14.712Z,36.07
2023-07-08T11:58:27.405Z,35.47
2023-07-08T12:03:40.572Z,34.24
2023-07-08T12:08:43.216Z,34.26
2023-07-08T12:13:44.917Z,34.57
2023-07-08T12:18:47.712Z,35.47
2023-07-08T12:23:49.472Z,35.05
2023-07-08T12:28:51.124Z,34.94
2023-07-08T12:33:53.123Z,32.85
2023-07-08T12:38:57.675Z,33.04
2023-07-08T12:44:00.766Z,32.88
2023-07-08T12:49:02.479Z,32.87
2023-07-08T12:54:04.248Z,33.12
2023-07-08T12:59:08.009Z,33.75
2023-07-08T13:04:13.030Z,33.44
2023-07-08T13:09:35.079Z,33.15
2023-07-08T13:14:37.310Z,33.06
2023-07-08T13:19:39.499Z,34.05
2023-07-08T13:24:41.727Z,33.44
2023-07-08T13:29:43.807Z,32.04
2023-07-08T13:34:45.491Z,32.30
2023-07-08T13:39:47.367Z,32.81
2023-07-08T13:44:50.232Z,32.74
2023-07-08T13:50:18.395Z,31.79
2023-07-08T13:55:30.382Z,31.51
2023-07-08T14:00:32.792Z,31.49
2023-07-08T14:05:34.637Z,30.97
2023-07-08T14:10:36.372Z,30.48
2023-07-08T14:15:40.069Z,30.75
2023-07-08T14:20:42.092Z,30.90
2023-07-08T14:25:43.832Z,29.62
2023-07-08T14:30:48.912Z,29.87
2023-07-08T14:35:51.232Z,29.10
2023-07-08T14:40:52.864Z,29.36
2023-07-08T14:45:57.679Z,29.35
2023-07-08T14:51:00.088Z,29.22
2023-07-08T14:56:14.743Z,28.61
2023-07-08T15:01:21.529Z,30.17
2023-07-08T15:06:24.306Z,28.42
2023-07-08T15:11:27.619Z,29.63
2023-07-08T15:16:29.389Z,30.47
2023-07-08T15:21:31.051Z,28.18
2023-07-08T15:26:32.724Z,28.53
2023-07-08T15:31:35.863Z,27.31
2023-07-08T15:36:37.608Z,28.40
2023-07-08T15:41:39.985Z,28.00
2023-07-08T15:46:49.784Z,28.10
2023-07-08T15:51:52.009Z,27.90
2023-07-08T15:56:54.878Z,27.76
2023-07-08T16:02:03.977Z,28.05
2023-07-08T16:07:05.972Z,28.54
2023-07-08T16:12:12.512Z,27.86
2023-07-08T16:17:14.341Z,27.75
2023-07-08T16:22:16.039Z,27.98
2023-07-08T16:27:17.962Z,28.41
2023-07-08T16:32:24.211Z,28.06
2023-07-08T16:37:25.976Z,28.32
2023-07-08T16:42:27.896Z,28.50
2023-07-08T16:47:29.655Z,28.02
2023-07-08T16:52:32.945Z,26.71
2023-07-08T16:57:34.688Z,28.21
2023-07-08T17:02:37.087Z,28.21
2023-07-08T17:07:39.011Z,28.18
2023-07-08T17:12:42.069Z,27.97
2023-07-08T17:17:50.072Z,28.42
2023-07-08T17:22:51.921Z,27.84
2023-07-08T17:27:55.302Z,28.20
2023-07-08T17:32:59.560Z,27.83
2023-07-08T17:38:01.268Z,27.58
2023-07-08T17:43:03.262Z,28.75
2023-07-08T17:48:09.364Z,28.64
2023-07-08T17:53:17.817Z,28.61
2023-07-08T17:58:20.024Z,28.76
2023-07-08T18:03:21.867Z,28.50
2023-07-08T18:08:23.634Z,28.84
2023-07-08T18:13:28.204Z,30.20
2023-07-08T18:18:30.285Z,30.18
2023-07-08T18:23:35.964Z,30.06
2023-07-08T18:28:37.916Z,30.54
2023-07-08T18:33:39.631Z,30.35
2023-07-08T18:38:41.730Z,30.57
2023-07-08T18:43:43.610Z,30.62
2023-07-08T18:48:45.676Z,30.85
2023-07-08T18:53:47.436Z,31.65
2023-07-08T18:58:49.146Z,31.76
2023-07-08T19:03:51.944Z,32.07
2023-07-08T19:08:53.732Z,32.64
2023-07-08T19:13:56.209Z,33.00
2023-07-08T19:18:58.054Z,33.73
2023-07-08T19:24:00.447Z,34.72
2023-07-08T19:29:02.229Z,33.46
2023-07-08T19:34:06.360Z,34.08
2023-07-08T19:39:10.983Z,36.87
2023-07-08T19:44:21.285Z,37.42
2023-07-08T19:49:23.078Z,38.91
2023-07-08T19:54:25.466Z,39.38
2023-07-08T19:59:28.865Z,39.89
2023-07-08T20:04:30.579Z,38.00
2023-07-08T20:09:32.370Z,38.31
2023-07-08T20:14:35.782Z,38.95
2023-07-08T20:19:37.498Z,37.36
2023-07-08T20:24:39.202Z,36.16
2023-07-08T20:29:40.926Z,36.64
2023-07-08T20:34:42.769Z,36.93
2023-07-08T20:39:44.575Z,36.34
2023-07-08T20:44:46.333Z,36.56
2023-07-08T20:49:48.075Z,36.25
2023-07-08T20:54:51.400Z,36.15
2023-07-08T20:59:53.147Z,35.87
2023-07-08T21:04:55.018Z,35.97
2023-07-08T21:09:56.875Z,37.03
2023-07-08T21:14:58.575Z,36.72
2023-07-08T21:20:00.298Z,37.05
2023-07-08T21:25:02.025Z,37.40
2023-07-08T21:30:10.921Z,37.05
2023-07-08T21:35:12.945Z,38.20
2023-07-08T21:40:30.412Z,37.68
2023-07-08T21:45:37.121Z,39.06
2023-07-08T21:50:58.760Z,39.70
2023-07-08T21:56:01.737Z,40.34
2023-07-08T22:01:03.596Z,41.18
2023-07-08T22:06:05.772Z,40.43
2023-07-08T22:11:29.509Z,41.76
2023-07-08T22:16:32.254Z,40.30
2023-07-08T22:21:39.596Z,40.12
2023-07-08T22:26:44.688Z,39.31
2023-07-08T22:31:46.562Z,38.13
2023-07-08T22:36:48.354Z,39.79
2023-07-08T22:41:58.159Z,40.38
2023-07-08T22:47:01.404Z,41.77
2023-07-08T22:52:03.482Z,40.72
2023-07-08T22:57:05.868Z,42.18
2023-07-08T23:02:07.750Z,42.38
2023-07-08T23:07:12.113Z,42.28
2023-07-08T23:12:13.849Z,42.64
2023-07-08T23:17:15.675Z,43.47
2023-07-08T23:22:20.852Z,42.51
2023-07-08T23:27:24.251Z,40.96
2023-07-08T23:32:25.976Z,42.60
2023-07-08T23:37:30.478Z,41.17
2023-07-08T23:42:32.203Z,42.06
2023-07-08T23:47:34.665Z,43.46
2023-07-08T23:52:36.569Z,42.39
2023-07-08T23:57:38.412Z,43.91
